createdAt,value
2019-04-23T00:02:26.572Z,5.47
2019-04-23T00:04:47.924Z,4.93
2019-04-23T00:07:30.022Z,5.20
2019-04-23T00:09:47.104Z,5.10
2019-04-23T00:12:23.049Z,5.37
2019-04-23T00:14:49.510Z,5.17
2019-04-23T00:17:12.052Z,5.27
2019-04-23T00:19:34.223Z,4.90
2019-04-23T00:22:16.688Z,5.20
2019-04-23T00:27:40.385Z,5.50
2019-04-23T00:29:53.820Z,5.33
2019-04-23T00:32:18.409Z,5.67
2019-04-23T00:37:11.302Z,5.20
2019-04-23T00:39:34.363Z,5.33
2019-04-23T00:42:05.409Z,4.67
2019-04-23T00:44:32.482Z,5.40
2019-04-23T00:46:55.837Z,5.00
2019-04-23T00:49:21.112Z,5.10
2019-04-23T00:51:42.530Z,4.77
2019-04-23T00:54:14.401Z,5.30
2019-04-23T00:56:56.451Z,5.33
2019-04-23T00:59:00.776Z,5.50
2019-04-23T01:01:39.303Z,5.33
2019-04-23T01:03:55.167Z,5.20
2019-04-23T01:08:44.154Z,5.47
2019-04-23T01:11:19.928Z,4.83
2019-04-23T01:13:43.202Z,5.33
2019-04-23T01:18:46.869Z,5.50
2019-04-23T01:20:54.422Z,5.40
2019-04-23T01:23:37.714Z,5.30
2019-04-23T01:26:08.129Z,5.60
2019-04-23T01:28:47.962Z,5.20
2019-04-23T01:31:18.165Z,5.27
2019-04-23T01:36:20.657Z,5.60
2019-04-23T01:40:53.687Z,5.90
2019-04-23T01:43:26.736Z,5.10
2019-04-23T01:45:41.623Z,6.00
2019-04-23T01:48:12.787Z,5.83
2019-04-23T01:50:50.194Z,5.83
2019-04-23T01:53:16.295Z,6.03
2019-04-23T01:55:42.467Z,6.30
2019-04-23T01:58:23.717Z,5.97
2019-04-23T02:00:39.188Z,6.60
2019-04-23T02:03:16.158Z,6.67
2019-04-23T02:05:32.926Z,6.30
2019-04-23T02:07:56.927Z,6.50
2019-04-23T02:10:29.539Z,6.00
2019-04-23T02:12:48.927Z,6.90
2019-04-23T02:15:16.925Z,6.90
2019-04-23T02:17:39.772Z,6.40
2019-04-23T02:20:08.903Z,6.83
2019-04-23T02:22:50.172Z,6.97
2019-04-23T02:25:35.300Z,6.77
2019-04-23T02:27:52.139Z,7.43
2019-04-23T02:33:08.374Z,6.80
2019-04-23T02:35:17.266Z,7.60
2019-04-23T02:37:54.669Z,7.07
2019-04-23T02:40:13.952Z,7.03
2019-04-23T02:44:53.776Z,6.83
2019-04-23T02:47:23.131Z,6.87
2019-04-23T02:49:55.404Z,7.07
2019-04-23T02:52:28.767Z,7.60
2019-04-23T02:57:20.331Z,7.30
2019-04-23T03:02:26.274Z,7.33
2019-04-23T03:04:44.134Z,7.40
2019-04-23T03:09:36.427Z,7.37
2019-04-23T03:12:22.506Z,7.30
2019-04-23T03:14:31.130Z,7.40
2019-04-23T03:16:58.401Z,7.20
2019-04-23T03:20:01.646Z,7.07
2019-04-23T03:21:56.126Z,7.30
2019-04-23T03:24:38.871Z,7.77
2019-04-23T03:26:55.714Z,8.03
2019-04-23T03:37:11.212Z,7.87
2019-04-23T03:38:56.004Z,7.90
2019-04-23T03:44:27.085Z,8.17
2019-04-23T03:51:31.827Z,7.43
2019-04-23T03:53:58.520Z,8.20
2019-04-23T04:01:07.767Z,8.10
2019-04-23T04:04:04.084Z,7.60
2019-04-23T04:06:05.801Z,8.03
2019-04-23T04:10:57.414Z,8.27
2019-04-23T04:13:22.762Z,8.60
2019-04-23T04:18:25.826Z,8.00
2019-04-23T04:20:44.288Z,8.27
2019-04-23T04:28:03.524Z,8.63
2019-04-23T04:30:20.853Z,8.37
2019-04-23T04:33:00.434Z,7.90
2019-04-23T04:42:33.548Z,8.40
2019-04-23T04:45:00.648Z,8.80
2019-04-23T04:47:32.439Z,9.30
2019-04-23T04:49:58.363Z,8.13
2019-04-23T04:54:24.104Z,8.37
2019-04-23T04:57:17.086Z,8.67
2019-04-23T04:59:48.040Z,8.67
2019-04-23T05:02:08.865Z,8.20
2019-04-23T05:04:26.660Z,8.13
2019-04-23T05:07:04.475Z,8.10
2019-04-23T05:09:43.860Z,8.23
2019-04-23T05:14:03.890Z,8.20
2019-04-23T05:16:35.516Z,8.50
2019-04-23T05:19:19.947Z,8.60
2019-04-23T05:21:37.646Z,8.47
2019-04-23T05:23:54.373Z,8.80
2019-04-23T05:26:26.521Z,8.50
2019-04-23T05:28:55.558Z,8.63
2019-04-23T05:31:15.798Z,8.73
2019-04-23T05:33:45.167Z,8.57
2019-04-23T05:38:54.233Z,8.90
2019-04-23T05:41:03.805Z,7.83
2019-04-23T05:43:20.941Z,8.17
2019-04-23T05:45:46.674Z,8.17
2019-04-23T05:48:17.498Z,8.37
2019-04-23T05:50:50.637Z,8.03
2019-04-23T05:55:39.919Z,8.30
2019-04-23T05:58:00.591Z,8.23
2019-04-23T06:00:34.749Z,8.73
2019-04-23T06:02:59.327Z,8.27
2019-04-23T06:05:20.005Z,8.03
2019-04-23T06:10:11.018Z,8.53
2019-04-23T06:12:42.278Z,7.97
2019-04-23T06:15:06.826Z,9.20
2019-04-23T06:17:27.453Z,8.27
2019-04-23T06:19:58.592Z,8.17
2019-04-23T06:24:47.150Z,9.00
2019-04-23T06:27:24.558Z,8.43
2019-04-23T06:29:39.530Z,8.43
2019-04-23T06:32:07.933Z,8.80
2019-04-23T06:34:47.353Z,7.60
2019-04-23T06:36:57.483Z,7.53
2019-04-23T06:39:33.253Z,8.90
2019-04-23T06:41:55.051Z,8.50
2019-04-23T06:46:56.888Z,8.97
2019-04-23T06:49:17.064Z,8.50
2019-04-23T06:51:51.874Z,8.50
2019-04-23T06:54:04.475Z,8.23
2019-04-23T06:56:37.490Z,7.90
2019-04-23T06:59:02.454Z,8.37
2019-04-23T07:01:33.426Z,7.90
2019-04-23T07:03:56.941Z,8.50
2019-04-23T07:09:09.649Z,7.87
2019-04-23T07:13:49.135Z,8.53
2019-04-23T07:16:03.434Z,7.73
2019-04-23T07:18:31.453Z,7.87
2019-04-23T07:21:02.779Z,7.73
2019-04-23T07:23:35.677Z,7.30
2019-04-23T07:26:02.223Z,7.90
2019-04-23T07:28:21.405Z,7.23
2019-04-23T07:30:56.133Z,8.13
2019-04-23T07:33:19.165Z,8.10
2019-04-23T07:35:51.810Z,7.43
2019-04-23T07:38:44.244Z,7.60
2019-04-23T07:41:23.610Z,7.73
2019-04-23T07:44:02.601Z,7.43
2019-04-23T07:46:49.946Z,7.57
2019-04-23T07:48:56.372Z,7.00
2019-04-23T07:51:27.609Z,7.27
2019-04-23T07:53:53.582Z,6.93
2019-04-23T07:56:27.980Z,6.47
2019-04-23T07:58:39.383Z,7.00
2019-04-23T08:01:09.641Z,6.80
2019-04-23T08:03:39.326Z,6.87
2019-04-23T08:06:01.016Z,6.97
2019-04-23T08:08:43.320Z,6.80
2019-04-23T08:13:42.335Z,6.03
2019-04-23T08:16:08.892Z,6.60
2019-04-23T08:18:29.942Z,6.33
2019-04-23T08:23:42.548Z,6.13
2019-04-23T08:26:26.825Z,6.00
2019-04-23T08:29:00.981Z,6.30
2019-04-23T08:31:15.259Z,5.80
2019-04-23T08:33:40.128Z,6.40
2019-04-23T08:36:12.330Z,6.07
2019-04-23T08:41:12.903Z,5.77
2019-04-23T08:43:47.821Z,6.23
2019-04-23T08:46:05.828Z,6.00
2019-04-23T08:48:55.677Z,6.37
2019-04-23T08:51:03.472Z,6.13
2019-04-23T08:55:55.024Z,5.53
2019-04-23T08:58:22.441Z,5.77
2019-04-23T09:00:52.619Z,6.07
2019-04-23T09:03:20.020Z,5.37
2019-04-23T09:08:13.095Z,5.60
2019-04-23T09:10:41.033Z,5.63
2019-04-23T09:13:26.108Z,5.43
2019-04-23T09:18:05.117Z,5.80
2019-04-23T09:20:27.639Z,5.40
2019-04-23T09:23:02.820Z,6.70
2019-04-23T09:30:13.289Z,5.40
2019-04-23T09:32:36.351Z,5.50
2019-04-23T09:37:48.419Z,5.27
2019-04-23T09:40:16.737Z,5.20
2019-04-23T09:45:20.309Z,4.90
2019-04-23T09:48:04.812Z,5.50
2019-04-23T09:53:09.630Z,5.07
2019-04-23T09:55:33.734Z,5.03
2019-04-23T10:00:34.660Z,5.73
2019-04-23T10:02:34.068Z,4.93
2019-04-23T10:05:01.300Z,5.17
2019-04-23T10:07:28.596Z,4.70
2019-04-23T10:09:40.705Z,4.90
2019-04-23T10:12:07.208Z,4.83
2019-04-23T10:14:32.482Z,5.33
2019-04-23T10:16:58.035Z,5.20
2019-04-23T10:19:24.572Z,5.27
2019-04-23T10:21:49.327Z,5.20
2019-04-23T10:24:15.065Z,5.20
2019-04-23T10:26:39.992Z,4.63
2019-04-23T10:29:07.717Z,4.60
2019-04-23T10:31:33.494Z,5.10
2019-04-23T10:33:58.115Z,4.87
2019-04-23T10:36:25.849Z,4.97
2019-04-23T10:38:56.095Z,4.77
2019-04-23T10:41:16.067Z,4.53
2019-04-23T10:43:43.699Z,4.80
2019-04-23T10:46:47.119Z,4.50
2019-04-23T10:49:47.814Z,4.30
2019-04-23T10:52:24.890Z,4.53
2019-04-23T10:57:12.845Z,4.67
2019-04-23T11:02:23.986Z,4.43
2019-04-23T11:07:03.338Z,4.30
2019-04-23T11:09:43.125Z,4.00
2019-04-23T11:11:55.129Z,4.10
2019-04-23T11:14:18.241Z,4.30
2019-04-23T11:19:32.375Z,4.00
2019-04-23T11:21:42.810Z,4.37
2019-04-23T11:24:11.377Z,4.07
2019-04-23T11:26:42.376Z,4.10
2019-04-23T11:28:55.187Z,4.30
2019-04-23T11:31:31.250Z,4.93
2019-04-23T11:33:52.310Z,4.17
2019-04-23T11:36:43.487Z,4.50
2019-04-23T11:41:17.028Z,4.40
2019-04-23T11:43:34.243Z,4.50
2019-04-23T11:46:10.594Z,4.50
2019-04-23T11:48:48.080Z,4.23
2019-04-23T11:51:36.398Z,4.20
2019-04-23T11:56:02.799Z,4.43
2019-04-23T12:01:00.840Z,4.50
2019-04-23T12:03:02.544Z,4.47
2019-04-23T12:05:58.281Z,4.57
2019-04-23T12:08:33.389Z,3.87
2019-04-23T12:11:36.119Z,4.07
2019-04-23T12:15:53.863Z,4.70
2019-04-23T12:18:28.302Z,4.10
2019-04-23T12:20:39.839Z,4.27
2019-04-23T12:23:25.324Z,4.77
2019-04-23T12:28:06.578Z,4.57
2019-04-23T12:30:42.009Z,4.13
2019-04-23T12:33:22.033Z,4.30
2019-04-23T12:35:25.752Z,4.27
2019-04-23T12:40:36.002Z,4.90
2019-04-23T12:47:58.195Z,4.23
2019-04-23T12:52:34.273Z,4.67
2019-04-23T12:55:06.775Z,4.40
2019-04-23T12:59:50.363Z,4.30
2019-04-23T13:02:25.812Z,4.13
2019-04-23T13:12:20.549Z,4.60
2019-04-23T13:14:43.771Z,4.10
2019-04-23T13:17:15.399Z,4.37
2019-04-23T13:19:39.483Z,4.80
2019-04-23T13:24:32.752Z,4.53
2019-04-23T13:26:54.901Z,4.37
2019-04-23T13:29:28.612Z,4.83
2019-04-23T13:31:51.913Z,4.77
2019-04-23T13:34:25.883Z,4.77
2019-04-23T13:36:46.890Z,4.70
2019-04-23T13:39:14.629Z,4.70
2019-04-23T13:41:33.566Z,4.53
2019-04-23T13:43:52.722Z,4.67
2019-04-23T13:46:19.794Z,5.03
2019-04-23T13:48:48.910Z,4.90
2019-04-23T13:51:25.674Z,4.90
2019-04-23T13:53:49.714Z,4.90
2019-04-23T13:56:19.011Z,5.03
2019-04-23T14:01:18.345Z,4.30
2019-04-23T14:03:35.712Z,5.33
2019-04-23T14:08:53.893Z,4.70
2019-04-23T14:11:05.418Z,4.77
2019-04-23T14:18:53.914Z,5.50
2019-04-23T14:20:53.158Z,4.90
2019-04-23T14:26:01.107Z,5.07
2019-04-23T14:28:28.105Z,5.40
2019-04-23T14:33:11.521Z,5.27
2019-04-23T14:35:32.165Z,4.90
2019-04-23T14:38:11.333Z,4.53
2019-04-23T14:40:26.528Z,5.03
2019-04-23T14:42:56.770Z,4.90
2019-04-23T14:45:29.725Z,4.97
2019-04-23T14:48:03.924Z,5.13
2019-04-23T14:52:38.316Z,4.60
2019-04-23T14:57:46.074Z,5.10
2019-04-23T15:00:03.423Z,5.90
2019-04-23T15:02:31.489Z,5.10
2019-04-23T15:04:51.124Z,4.90
2019-04-23T15:09:55.616Z,5.33
2019-04-23T15:12:30.162Z,5.07
2019-04-23T15:14:51.208Z,5.87
2019-04-23T15:17:05.516Z,5.20
2019-04-23T15:22:16.891Z,4.77
2019-04-23T15:29:12.895Z,5.27
2019-04-23T15:34:19.829Z,5.47
2019-04-23T15:40:15.212Z,6.40
2019-04-23T15:41:49.043Z,5.33
2019-04-23T15:44:10.718Z,6.10
2019-04-23T15:46:47.090Z,6.10
2019-04-23T15:49:08.293Z,5.27
2019-04-23T15:51:35.510Z,5.70
2019-04-23T15:53:56.417Z,6.37
2019-04-23T15:56:26.848Z,6.37
2019-04-23T15:59:17.989Z,5.57
2019-04-23T16:03:19.726Z,6.83
2019-04-23T16:05:42.808Z,6.50
2019-04-23T16:08:45.594Z,14.20
2019-04-23T16:11:15.541Z,9.30
2019-04-23T16:13:31.179Z,5.97
2019-04-23T16:16:02.598Z,5.97
2019-04-23T16:18:28.417Z,6.00
2019-04-23T16:21:10.504Z,7.30
2019-04-23T16:23:15.239Z,7.83
2019-04-23T16:25:36.340Z,8.30
2019-04-23T16:28:09.130Z,6.47
2019-04-23T16:30:34.718Z,8.90
2019-04-23T16:35:34.659Z,5.30
2019-04-23T16:38:13.607Z,6.10
2019-04-23T16:40:31.872Z,7.33
2019-04-23T16:42:59.676Z,5.67
2019-04-23T16:45:25.603Z,5.63
2019-04-23T16:48:07.368Z,6.40
2019-04-23T16:50:11.432Z,5.67
2019-04-23T16:52:39.501Z,6.80
2019-04-23T16:55:07.087Z,6.70
2019-04-23T16:57:35.698Z,7.23
2019-04-23T17:02:21.153Z,6.27
2019-04-23T17:04:53.015Z,6.50
2019-04-23T17:07:07.053Z,6.40
2019-04-23T17:09:51.179Z,6.67
2019-04-23T17:14:48.080Z,6.57
2019-04-23T17:16:51.587Z,6.53
2019-04-23T17:21:53.323Z,7.47
2019-04-23T17:29:13.703Z,7.13
2019-04-23T17:34:12.108Z,6.03
2019-04-23T17:36:38.046Z,7.40
2019-04-23T17:41:36.057Z,7.60
2019-04-23T17:44:14.244Z,8.20
2019-04-23T17:46:32.310Z,6.47
2019-04-23T17:48:56.494Z,7.83
2019-04-23T17:51:19.668Z,7.03
2019-04-23T17:53:50.146Z,7.27
2019-04-23T17:56:26.703Z,7.40
2019-04-23T18:03:49.532Z,10.00
2019-04-23T18:06:21.305Z,7.63
2019-04-23T18:08:32.902Z,7.73
2019-04-23T18:11:13.126Z,8.70
2019-04-23T18:13:27.709Z,7.73
2019-04-23T18:16:04.129Z,8.87
2019-04-23T18:18:23.591Z,8.03
2019-04-23T18:21:04.809Z,7.57
2019-04-23T18:23:28.494Z,8.87
2019-04-23T18:26:05.578Z,8.57
2019-04-23T18:28:30.176Z,7.33
2019-04-23T18:31:06.189Z,8.43
2019-04-23T18:36:02.430Z,8.93
2019-04-23T18:40:58.908Z,10.10
2019-04-23T18:43:20.171Z,9.83
2019-04-23T18:45:46.741Z,8.30
2019-04-23T18:48:39.198Z,8.07
2019-04-23T18:50:52.150Z,9.13
2019-04-23T18:53:26.842Z,8.80
2019-04-23T18:55:57.696Z,8.37
2019-04-23T18:58:12.898Z,9.70
2019-04-23T19:00:45.674Z,9.10
2019-04-23T19:03:30.270Z,8.30
2019-04-23T19:05:45.625Z,8.87
2019-04-23T19:08:21.321Z,7.93
2019-04-23T19:10:53.734Z,9.17
2019-04-23T19:13:18.683Z,8.07
2019-04-23T19:18:12.565Z,7.83
2019-04-23T19:23:13.814Z,8.80
2019-04-23T19:25:31.859Z,7.43
2019-04-23T19:28:30.684Z,8.23
2019-04-23T19:30:38.831Z,8.07
2019-04-23T19:32:57.189Z,7.30
2019-04-23T19:35:39.919Z,7.63
2019-04-23T19:40:11.464Z,7.87
2019-04-23T19:42:44.429Z,7.90
2019-04-23T19:45:12.954Z,8.13
2019-04-23T19:47:37.611Z,8.03
2019-04-23T19:49:56.815Z,7.37
2019-04-23T19:52:20.354Z,7.83
2019-04-23T19:57:19.435Z,7.77
2019-04-23T19:59:44.457Z,8.00
2019-04-23T20:04:40.714Z,8.20
2019-04-23T20:07:12.287Z,8.17
2019-04-23T20:11:55.554Z,7.90
2019-04-23T20:14:19.229Z,7.93
2019-04-23T20:17:06.127Z,8.07
2019-04-23T20:19:19.034Z,8.23
2019-04-23T20:21:44.406Z,8.60
2019-04-23T20:26:32.352Z,8.97
2019-04-23T20:32:06.298Z,8.77
2019-04-23T20:33:00.054Z,8.00
2019-04-23T20:39:02.635Z,8.37
2019-04-23T20:41:33.248Z,8.77
2019-04-23T20:43:56.142Z,9.10
2019-04-23T20:46:17.878Z,9.63
2019-04-23T20:48:48.903Z,8.97
2019-04-23T20:51:04.892Z,9.30
2019-04-23T20:53:45.006Z,9.17
2019-04-23T20:56:07.293Z,9.30
2019-04-23T20:58:30.805Z,9.07
2019-04-23T21:01:07.731Z,8.90
2019-04-23T21:03:37.592Z,8.73
2019-04-23T21:05:58.565Z,8.70
2019-04-23T21:08:30.903Z,8.53
2019-04-23T21:10:56.801Z,9.23
2019-04-23T21:15:45.551Z,8.53
2019-04-23T21:20:36.972Z,8.97
2019-04-23T21:23:09.653Z,8.20
2019-04-23T21:25:30.517Z,8.57
2019-04-23T21:28:17.191Z,8.60
2019-04-23T21:33:11.629Z,9.90
2019-04-23T21:36:10.841Z,8.30
2019-04-23T21:38:33.297Z,8.80
2019-04-23T21:41:06.113Z,8.87
2019-04-23T21:43:16.451Z,8.90
2019-04-23T21:45:52.776Z,8.97
2019-04-23T21:50:43.334Z,8.87
2019-04-23T21:52:58.862Z,8.40
2019-04-23T21:55:38.950Z,8.47
2019-04-23T22:00:24.271Z,8.47
2019-04-23T22:02:59.446Z,8.00
2019-04-23T22:05:15.953Z,8.60
2019-04-23T22:07:51.912Z,8.40
2019-04-23T22:10:09.677Z,7.93
2019-04-23T22:12:34.186Z,7.53
2019-04-23T22:14:55.335Z,7.03
2019-04-23T22:17:25.638Z,7.47
2019-04-23T22:20:09.474Z,7.77
2019-04-23T22:22:22.185Z,7.30
2019-04-23T22:27:13.249Z,6.90
2019-04-23T22:29:39.123Z,6.93
2019-04-23T22:31:59.755Z,6.43
2019-04-23T22:34:31.106Z,7.37
2019-04-23T22:37:04.603Z,7.10
2019-04-23T22:44:22.487Z,6.60
2019-04-23T22:46:53.638Z,6.50
2019-04-23T22:49:40.649Z,6.57
2019-04-23T22:52:00.423Z,6.97
2019-04-23T22:54:13.755Z,6.33
2019-04-23T22:56:44.005Z,6.67
2019-04-23T23:00:00.936Z,6.10
2019-04-23T23:01:56.927Z,6.47
2019-04-23T23:04:13.888Z,6.43
2019-04-23T23:06:48.915Z,6.80
2019-04-23T23:09:18.964Z,6.97
2019-04-23T23:11:35.435Z,6.93
2019-04-23T23:14:09.909Z,7.13
2019-04-23T23:16:22.342Z,7.47
2019-04-23T23:18:49.144Z,8.23
2019-04-23T23:21:12.309Z,7.97
2019-04-23T23:23:40.800Z,7.97
2019-04-23T23:26:10.006Z,7.73
2019-04-23T23:28:38.075Z,7.53
2019-04-23T23:31:10.187Z,7.73
2019-04-23T23:33:24.780Z,10.03
2019-04-23T23:35:53.044Z,15.47
2019-04-23T23:38:25.229Z,7.63
2019-04-23T23:40:47.596Z,8.40
2019-04-23T23:43:23.140Z,8.07
2019-04-23T23:45:46.748Z,8.53
2019-04-23T23:48:11.457Z,7.60
2019-04-23T23:50:35.439Z,7.67
2019-04-23T23:53:02.516Z,7.10
2019-04-23T23:55:25.016Z,7.43
2019-04-23T23:57:52.857Z,7.20
